Time;durP1;ratioP1;P1;durP2;ratioP2;P2;SDS_P1;SDS_P2;PMS_P1;PMS_P2;Temp;Humidity;BMP_temperature;BMP_pressure;BME280_temperature;BME280_humidity;BME280_pressure;Samples;Min_cycle;Max_cycle;Signal;HPM_P1;HPM_P2
2021/12/04 00:12:34;;;;;;;10.80;8.50;;;23.00;59.50;;;;;;31498359;28;20049;-54
2021/12/04 00:27:37;;;;;;;12.23;9.38;;;23.00;59.70;;;;;;31496540;28;20087;-59
2021/12/04 00:58:02;;;;;;;32.53;25.20;;;22.90;59.90;;;;;;31516387;28;20056;-50
2021/12/04 01:13:10;;;;;;;19.73;15.57;;;22.70;59.00;;;;;;31700117;28;20040;-59
2021/12/04 01:28:12;;;;;;;12.63;9.85;;;22.70;59.10;;;;;;31760011;28;20052;-59
2021/12/04 01:43:14;;;;;;;6.43;5.82;;;22.90;59.90;;;;;;31660668;28;20068;-59
2021/12/04 01:58:17;;;;;;;4.45;3.65;;;23.30;59.50;;;;;;31596489;28;20041;-59
2021/12/04 02:13:21;;;;;;;3.42;2.88;;;23.30;59.60;;;;;;31521324;28;20048;-58
2021/12/04 02:28:23;;;;;;;1.77;1.58;;;23.10;59.50;;;;;;31636199;28;20060;-51
2021/12/04 02:43:27;;;;;;;1.65;1.23;;;23.00;59.50;;;;;;31633461;28;20052;-52
2021/12/04 02:58:28;;;;;;;1.20;1.02;;;23.00;59.50;;;;;;31513273;28;20075;-51
2021/12/04 03:13:31;;;;;;;0.50;0.50;;;22.90;59.60;;;;;;31506862;28;20048;-59
2021/12/04 03:28:33;;;;;;;0.40;0.40;;;22.90;60.00;;;;;;31503672;28;20057;-59
2021/12/04 03:43:35;;;;;;;0.20;0.20;;;22.90;60.20;;;;;;31502094;28;20162;-59
2021/12/04 03:58:37;;;;;;;0.22;0.22;;;23.30;60.60;;;;;;31500774;28;20649;-58
2021/12/04 04:13:43;;;;;;;0.10;0.10;;;23.30;60.30;;;;;;31500560;28;20053;-53
2021/12/04 04:28:45;;;;;;;0.20;0.20;;;23.10;60.80;;;;;;31497955;28;20132;-62
2021/12/04 04:59:31;;;;;;;0.20;0.13;;;23.00;61.10;;;;;;31497774;28;20041;-61
2021/12/04 05:14:35;;;;;;;0.10;0.10;;;22.90;61.00;;;;;;31496041;28;20069;-61
2021/12/04 05:29:38;;;;;;;0.32;0.10;;;22.80;60.90;;;;;;31476134;28;20089;-52
2021/12/04 05:44:41;;;;;;;0.10;0.10;;;23.00;61.60;;;;;;31493310;28;20060;-61
2021/12/04 05:59:43;;;;;;;0.10;0.10;;;23.30;61.20;;;;;;31513479;28;20104;-60
2021/12/04 06:14:48;;;;;;;0.10;0.10;;;23.20;60.90;;;;;;31513036;28;20041;-61
2021/12/04 06:29:51;;;;;;;0.10;0.10;;;23.00;61.40;;;;;;31509717;28;20095;-60
2021/12/04 06:44:55;;;;;;;0.10;0.10;;;22.90;61.50;;;;;;31509137;28;20125;-48
2021/12/04 06:59:58;;;;;;;0.13;0.13;;;22.90;61.60;;;;;;31508922;28;20186;-51
2021/12/04 07:15:00;;;;;;;1.92;0.75;;;22.80;61.40;;;;;;31508735;28;20083;-62
2021/12/04 07:30:05;;;;;;;15.18;3.75;;;23.00;61.10;;;;;;31507572;28;20064;-54
2021/12/04 07:45:08;;;;;;;13.00;3.90;;;23.20;59.90;;;;;;31577850;28;20040;-48
2021/12/04 08:00:13;;;;;;;19.20;6.43;;;23.10;60.00;;;;;;31627624;28;20135;-50
2021/12/04 08:15:18;;;;;;;42.05;28.42;;;23.00;60.10;;;;;;31624908;28;20082;-45
2021/12/04 08:30:25;;;;;;;74.05;52.92;;;22.60;52.20;;;;;;31377020;28;20045;-50
2021/12/04 08:45:27;;;;;;;48.13;33.20;;;22.40;51.40;;;;;;31374331;28;20152;-58
2021/12/04 09:00:34;;;;;;;47.92;28.88;;;22.70;52.60;;;;;;31373090;28;20061;-62
2021/12/04 09:15:39;;;;;;;43.42;25.38;;;22.90;54.10;;;;;;31355221;28;20057;-48
2021/12/04 10:47:11;;;;;;;35.72;26.10;;;22.80;53.40;;;;;;31507554;28;20040;-58
2021/12/04 11:02:24;;;;;;;35.15;23.10;;;22.80;53.00;;;;;;31505296;28;20068;-58
2021/12/04 11:48:39;;;;;;;26.13;17.27;;;22.70;54.00;;;;;;31504999;28;20045;-57
2021/12/04 12:03:53;;;;;;;26.67;16.65;;;23.00;54.40;;;;;;31501428;28;20130;-57
2021/12/04 12:19:00;;;;;;;19.50;14.15;;;23.00;54.50;;;;;;31499751;28;20103;-48
2021/12/04 12:49:24;;;;;;;17.48;13.05;;;22.90;55.20;;;;;;31494814;28;20056;-58
2021/12/04 13:19:57;;;;;;;26.90;15.27;;;22.60;55.00;;;;;;31518381;28;20087;-52
2021/12/04 13:35:25;;;;;;;26.48;15.63;;;22.90;55.60;;;;;;31516508;28;20045;-52
2021/12/04 14:05:32;;;;;;;28.45;19.25;;;23.10;55.90;;;;;;31529318;28;20073;-45
2021/12/04 14:20:36;;;;;;;37.55;20.17;;;23.00;56.00;;;;;;31512703;28;20930;-50
2021/12/04 14:35:42;;;;;;;32.03;19.00;;;23.00;56.40;;;;;;31232947;28;10000453;-44
2021/12/04 14:50:48;;;;;;;28.05;17.30;;;22.90;56.90;;;;;;31619876;28;20049;-50
2021/12/04 15:05:57;;;;;;;26.13;16.33;;;22.90;56.90;;;;;;31587094;28;20098;-53
2021/12/04 15:21:03;;;;;;;26.63;15.83;;;22.70;56.90;;;;;;31590976;28;20120;-52
2021/12/04 15:36:10;;;;;;;20.83;13.95;;;22.60;57.00;;;;;;31574243;28;20140;-58
2021/12/04 16:06:38;;;;;;;19.30;12.30;;;22.70;57.60;;;;;;31596436;28;20073;-52
2021/12/04 16:21:40;;;;;;;17.20;11.98;;;23.10;57.60;;;;;;31683782;28;20051;-52
2021/12/04 16:36:45;;;;;;;15.27;10.07;;;23.10;57.70;;;;;;31655154;28;20092;-52
2021/12/04 17:07:07;;;;;;;13.57;9.60;;;22.90;57.40;;;;;;31565737;28;20041;-48
2021/12/04 17:22:09;;;;;;;13.20;8.73;;;22.90;57.30;;;;;;31641056;28;20127;-60
2021/12/04 17:37:12;;;;;;;12.48;8.65;;;22.90;57.20;;;;;;31240486;28;10000164;-58
2021/12/04 17:52:14;;;;;;;8.48;7.57;;;22.70;57.40;;;;;;31614845;28;20070;-59
2021/12/04 18:07:19;;;;;;;19.73;8.50;;;22.70;57.90;;;;;;31589333;28;20040;-57
2021/12/04 18:22:21;;;;;;;13.32;7.25;;;22.50;57.40;;;;;;31643553;28;20107;-52
2021/12/04 18:37:23;;;;;;;14.43;8.13;;;22.70;58.60;;;;;;31611932;28;20053;-59
2021/12/04 18:52:25;;;;;;;9.88;6.07;;;23.10;57.70;;;;;;31569415;28;20047;-55
2021/12/04 19:07:27;;;;;;;8.38;6.05;;;23.10;57.60;;;;;;31615466;28;20126;-59
2021/12/04 19:22:29;;;;;;;9.35;5.93;;;23.00;57.70;;;;;;31567987;28;20105;-59
2021/12/04 19:53:19;;;;;;;8.98;5.28;;;22.90;58.00;;;;;;31567091;28;20041;-50
2021/12/04 20:23:30;;;;;;;11.13;5.28;;;22.70;58.70;;;;;;31620138;28;20056;-54
2021/12/04 21:54:44;;;;;;;52.88;42.20;;;23.00;58.00;;;;;;31705263;28;20057;-52
2021/12/04 22:09:51;;;;;;;48.88;38.33;;;23.00;58.20;;;;;;31612463;28;20071;-57
2021/12/04 22:55:47;;;;;;;40.90;32.55;;;22.90;58.90;;;;;;31580577;28;20099;-50
